createdAt,value
2018-06-30T10:51:23.811Z,981.8
2018-06-30T10:52:25.413Z,981.8
2018-06-30T10:53:28.186Z,981.9
2018-06-30T10:54:29.500Z,981.9
2018-06-30T10:55:30.942Z,981.8
2018-06-30T10:56:35.388Z,981.8
2018-06-30T10:57:36.699Z,981.8
2018-06-30T10:58:38.328Z,981.8
2018-06-30T10:59:39.678Z,981.9
2018-06-30T11:00:48.682Z,981.8
2018-06-30T11:01:50.266Z,981.8
2018-06-30T11:02:53.779Z,981.8
2018-06-30T11:03:58.193Z,981.7
2018-06-30T11:04:59.686Z,981.7
2018-06-30T11:06:03.425Z,981.7
2018-06-30T11:07:09.397Z,981.7
2018-06-30T11:08:13.676Z,981.8
2018-06-30T11:09:15.116Z,981.8
2018-06-30T11:10:23.470Z,981.7
2018-06-30T11:11:29.013Z,981.7
2018-06-30T11:12:30.506Z,981.8
2018-06-30T11:13:32.091Z,981.6
2018-06-30T11:14:33.682Z,981.7
2018-06-30T11:15:37.216Z,981.7
2018-06-30T11:16:38.734Z,981.7
2018-06-30T11:17:40.382Z,981.8
2018-06-30T11:18:41.715Z,981.7
2018-06-30T11:19:43.617Z,981.7
2018-06-30T11:20:44.980Z,981.7
2018-06-30T11:21:46.373Z,981.7
2018-06-30T11:22:48.097Z,981.7
2018-06-30T11:23:57.489Z,981.6
2018-06-30T11:24:58.810Z,981.6
2018-06-30T11:26:00.377Z,981.6
2018-06-30T11:27:04.377Z,981.6
2018-06-30T11:28:07.701Z,981.5
2018-06-30T11:29:09.126Z,981.7
2018-06-30T11:30:11.101Z,981.6
2018-06-30T11:31:12.569Z,981.5
2018-06-30T11:32:13.965Z,981.6
2018-06-30T11:33:17.822Z,981.6
2018-06-30T11:34:22.174Z,981.6
2018-06-30T11:35:26.406Z,981.6
2018-06-30T11:36:30.275Z,981.7
2018-06-30T11:37:31.636Z,981.6
2018-06-30T11:38:38.137Z,981.7
2018-06-30T11:39:40.735Z,981.6
2018-06-30T11:40:42.468Z,981.6
2018-06-30T11:41:43.734Z,981.5
2018-06-30T11:42:45.148Z,981.4
2018-06-30T11:43:46.653Z,981.4
2018-06-30T11:44:50.783Z,981.4
2018-06-30T11:45:52.145Z,981.4
2018-06-30T11:46:53.448Z,981.5
2018-06-30T11:47:55.246Z,981.4
2018-06-30T11:48:57.065Z,981.4
2018-06-30T11:49:58.594Z,981.5
2018-06-30T11:51:02.721Z,981.5
2018-06-30T11:52:04.362Z,981.3
2018-06-30T11:53:05.813Z,981.1
2018-06-30T11:54:10.525Z,981.2
2018-06-30T11:55:11.949Z,981.3
2018-06-30T11:56:13.345Z,981.3
2018-06-30T11:57:14.932Z,981.3
2018-06-30T11:58:19.278Z,981.4
2018-06-30T11:59:22.858Z,981.5
2018-06-30T12:00:24.464Z,981.4
2018-06-30T12:01:26.360Z,981.4
2018-06-30T12:02:27.905Z,981.4
2018-06-30T12:03:29.297Z,981.2
2018-06-30T12:04:30.657Z,981.3
2018-06-30T12:05:54.245Z,981.4
2018-06-30T12:06:55.845Z,981.6
2018-06-30T12:07:57.275Z,981.3
2018-06-30T12:08:58.792Z,981.3
2018-06-30T12:10:00.238Z,981.3
2018-06-30T12:11:01.649Z,981.3
2018-06-30T12:12:05.503Z,981.4
2018-06-30T12:13:08.301Z,981.3
2018-06-30T12:14:09.980Z,981.4
2018-06-30T12:15:11.468Z,981.4
2018-06-30T12:16:14.236Z,981.4
2018-06-30T12:17:15.707Z,981.5
2018-06-30T12:18:17.360Z,981.4
2018-06-30T12:19:20.307Z,981.4
2018-06-30T12:20:25.748Z,981.4
2018-06-30T12:21:27.320Z,981.2
2018-06-30T12:22:28.696Z,981.2
2018-06-30T12:23:30.308Z,981.2
2018-06-30T12:24:31.938Z,981.3
2018-06-30T12:25:36.326Z,981.3
2018-06-30T12:26:38.070Z,981.3
2018-06-30T12:27:40.220Z,981.3
2018-06-30T12:28:41.737Z,981.2
2018-06-30T12:29:45.323Z,981.2
2018-06-30T12:31:01.081Z,981.2
2018-06-30T12:32:02.540Z,981.3
2018-06-30T12:33:26.275Z,981.3
2018-06-30T12:34:27.693Z,981.2
2018-06-30T12:35:30.109Z,981.4
2018-06-30T12:36:36.123Z,981.2
2018-06-30T12:37:41.810Z,981.3
2018-06-30T12:38:43.212Z,981.4
2018-06-30T12:39:44.542Z,981.3
2018-06-30T12:40:46.110Z,981.3
2018-06-30T12:41:47.622Z,981.3
2018-06-30T12:43:03.420Z,981.2
2018-06-30T12:44:04.749Z,981.3
2018-06-30T12:45:09.085Z,981.3
2018-06-30T12:46:18.048Z,981.2
2018-06-30T12:47:19.990Z,981.2
2018-06-30T12:48:21.258Z,981.2
2018-06-30T12:49:22.679Z,981.3
2018-06-30T12:50:24.110Z,981.2
2018-06-30T12:51:25.540Z,981.2
2018-06-30T12:52:27.026Z,981.2
2018-06-30T12:53:28.456Z,981.1
2018-06-30T12:54:32.643Z,981.2
2018-06-30T12:55:33.759Z,981.2
2018-06-30T12:56:35.239Z,981.2
2018-06-30T12:57:45.647Z,981.2
2018-06-30T12:58:46.976Z,981.3
2018-06-30T12:59:48.434Z,981.2
2018-06-30T13:00:49.769Z,981.1
2018-06-30T13:01:51.164Z,981.2
2018-06-30T13:02:52.840Z,981.3
2018-06-30T13:03:54.242Z,981.2
2018-06-30T13:06:12.477Z,981.2
2018-06-30T13:07:13.820Z,981.3
2018-06-30T13:08:18.197Z,981.2
2018-06-30T13:09:23.750Z,981.2
2018-06-30T13:10:25.119Z,981
2018-06-30T13:11:26.704Z,981.2
2018-06-30T13:12:32.519Z,981.1
2018-06-30T13:13:34.245Z,981
2018-06-30T13:14:40.704Z,981.2
2018-06-30T13:15:42.620Z,981.2
2018-06-30T13:16:46.335Z,981
2018-06-30T13:17:47.717Z,981.1
2018-06-30T13:18:49.355Z,981.1
2018-06-30T13:19:50.676Z,981.2
2018-06-30T13:20:52.186Z,981.2
2018-06-30T13:21:53.619Z,981.2
2018-06-30T13:22:55.070Z,981.2
2018-06-30T13:23:57.772Z,981.2
2018-06-30T13:24:59.367Z,981.1
2018-06-30T13:26:00.695Z,981.2
2018-06-30T13:27:05.435Z,981.1
2018-06-30T13:28:09.344Z,981.1
2018-06-30T13:29:10.853Z,981
2018-06-30T13:30:15.490Z,981.1
2018-06-30T13:31:17.072Z,981.1
2018-06-30T13:32:18.865Z,981.1
2018-06-30T13:33:20.300Z,981.1
2018-06-30T13:34:21.660Z,981.1
2018-06-30T13:35:23.336Z,981.1
2018-06-30T13:36:26.280Z,981.2
2018-06-30T13:37:27.606Z,981.1
2018-06-30T13:38:29.182Z,981.1
2018-06-30T13:39:30.895Z,981.1
2018-06-30T13:40:33.828Z,981.1
2018-06-30T13:41:36.017Z,981.1
2018-06-30T13:42:39.712Z,981.3
2018-06-30T13:43:41.095Z,981.1
2018-06-30T13:44:42.533Z,981
2018-06-30T13:45:43.966Z,981.2
2018-06-30T13:46:45.343Z,981.2
2018-06-30T13:47:46.632Z,981.1
2018-06-30T13:48:48.071Z,981.1
2018-06-30T13:49:49.545Z,980.9
2018-06-30T13:50:53.013Z,981.1
2018-06-30T13:51:54.440Z,981.1
2018-06-30T13:53:20.824Z,981.1
2018-06-30T13:54:27.520Z,981.2
2018-06-30T13:55:31.544Z,981.1
2018-06-30T13:56:32.940Z,981.1
2018-06-30T13:57:38.786Z,981.1
2018-06-30T13:58:40.320Z,981.1
2018-06-30T13:59:42.364Z,981.1
2018-06-30T14:00:43.956Z,981
2018-06-30T14:02:05.673Z,981
2018-06-30T14:03:07.089Z,981
2018-06-30T14:04:08.678Z,981.1
2018-06-30T14:05:10.103Z,981.1
2018-06-30T14:06:11.493Z,981.1
2018-06-30T14:07:13.071Z,981
2018-06-30T14:08:27.391Z,980.9
2018-06-30T14:09:31.164Z,981
2018-06-30T14:10:35.071Z,981.1
2018-06-30T14:11:38.026Z,981
2018-06-30T14:12:39.385Z,981
2018-06-30T14:13:41.327Z,981
2018-06-30T14:14:43.861Z,981
2018-06-30T14:15:51.256Z,980.9
2018-06-30T14:16:52.853Z,981
2018-06-30T14:17:58.842Z,980.9
2018-06-30T14:19:02.362Z,981
2018-06-30T14:20:04.310Z,980.9
2018-06-30T14:21:08.119Z,980.9
2018-06-30T14:22:09.520Z,981
2018-06-30T14:23:11.125Z,981
2018-06-30T14:24:12.465Z,980.9
2018-06-30T14:25:16.498Z,980.8
2018-06-30T14:26:17.788Z,980.8
2018-06-30T14:27:19.343Z,980.9
2018-06-30T14:28:21.325Z,980.7
2018-06-30T14:29:25.462Z,980.9
2018-06-30T14:30:29.678Z,981
2018-06-30T14:31:35.567Z,981
2018-06-30T14:32:41.992Z,981
2018-06-30T14:33:43.308Z,981
2018-06-30T14:34:44.784Z,981
2018-06-30T14:35:46.124Z,981
2018-06-30T14:36:47.488Z,980.9
2018-06-30T14:37:48.989Z,980.9
2018-06-30T14:38:50.591Z,980.9
2018-06-30T14:39:52.175Z,980.9
2018-06-30T14:40:53.492Z,980.8
2018-06-30T14:41:55.081Z,980.8
2018-06-30T14:42:56.527Z,980.8
2018-06-30T14:44:00.601Z,980.8
2018-06-30T14:45:02.265Z,980.8
2018-06-30T14:46:06.796Z,980.8
2018-06-30T14:47:08.253Z,980.8
2018-06-30T14:48:09.646Z,980.9
2018-06-30T14:49:13.371Z,980.9
2018-06-30T14:50:16.933Z,980.8
2018-06-30T14:51:18.418Z,980.8
2018-06-30T14:52:31.313Z,980.8
2018-06-30T14:53:33.139Z,980.8
2018-06-30T14:54:44.253Z,980.9
2018-06-30T14:55:46.474Z,980.9
2018-06-30T14:56:47.826Z,980.8
2018-06-30T14:57:58.829Z,980.9
2018-06-30T14:59:05.733Z,980.8
2018-06-30T15:00:07.372Z,980.9
2018-06-30T15:01:09.177Z,980.7
2018-06-30T15:02:10.935Z,980.7
2018-06-30T15:03:15.648Z,980.8
2018-06-30T15:04:17.365Z,980.9
2018-06-30T15:05:18.789Z,980.9
2018-06-30T15:06:20.468Z,980.9
2018-06-30T15:07:22.507Z,980.7
2018-06-30T15:08:25.293Z,980.9
2018-06-30T15:09:29.135Z,980.8
2018-06-30T15:10:31.101Z,980.8
2018-06-30T15:11:45.474Z,980.8
2018-06-30T15:12:49.473Z,980.9
2018-06-30T15:13:50.845Z,980.9
2018-06-30T15:14:52.655Z,980.9
2018-06-30T15:15:58.130Z,980.9
2018-06-30T15:17:01.118Z,980.8
2018-06-30T15:18:02.503Z,980.9
2018-06-30T15:19:03.872Z,980.9
2018-06-30T15:20:05.222Z,980.9
2018-06-30T15:21:11.955Z,980.9
2018-06-30T15:22:13.382Z,980.8
2018-06-30T15:23:14.782Z,980.9
2018-06-30T15:24:16.313Z,980.9
2018-06-30T15:25:21.080Z,980.8
2018-06-30T15:26:22.460Z,980.8
2018-06-30T15:27:23.977Z,980.9
2018-06-30T15:28:25.404Z,980.9
2018-06-30T15:29:26.765Z,980.9
2018-06-30T15:30:28.395Z,980.9
2018-06-30T15:31:29.985Z,980.8
2018-06-30T15:32:34.516Z,980.8
2018-06-30T15:33:40.442Z,980.8
2018-06-30T15:34:42.337Z,980.8
2018-06-30T15:35:46.053Z,980.8
2018-06-30T15:36:50.390Z,980.8
2018-06-30T15:37:51.721Z,980.8
2018-06-30T15:38:53.326Z,980.8
2018-06-30T15:39:55.077Z,980.8
2018-06-30T15:40:57.086Z,980.8
2018-06-30T15:41:59.091Z,980.8
2018-06-30T15:43:00.470Z,980.7
2018-06-30T15:44:03.221Z,980.7
2018-06-30T15:45:04.569Z,980.7
2018-06-30T15:46:15.712Z,980.8
2018-06-30T15:47:17.056Z,980.8
2018-06-30T15:48:18.892Z,980.8
2018-06-30T15:49:20.604Z,980.8
2018-06-30T15:50:22.024Z,980.8
2018-06-30T15:51:24.371Z,980.8
2018-06-30T15:52:25.935Z,980.8
2018-06-30T15:53:40.325Z,980.8
2018-06-30T15:54:41.658Z,980.8
2018-06-30T15:55:46.400Z,980.8
2018-06-30T15:56:47.806Z,980.8
2018-06-30T15:57:49.307Z,980.8
2018-06-30T15:58:52.009Z,980.8
2018-06-30T15:59:53.456Z,980.8
2018-06-30T16:00:55.240Z,980.8
2018-06-30T16:01:57.084Z,980.7
2018-06-30T16:02:58.619Z,980.8
2018-06-30T16:04:00.041Z,980.8
2018-06-30T16:05:02.849Z,980.8
2018-06-30T16:06:07.444Z,980.6
2018-06-30T16:07:08.854Z,980.7
2018-06-30T16:08:11.494Z,980.8
2018-06-30T16:09:13.371Z,980.8
2018-06-30T16:10:14.762Z,980.7
2018-06-30T16:11:16.138Z,980.7
2018-06-30T16:12:17.610Z,980.7
2018-06-30T16:13:19.372Z,980.7
2018-06-30T16:14:21.065Z,980.7
2018-06-30T16:15:22.424Z,980.8
2018-06-30T16:16:23.980Z,980.7
2018-06-30T16:17:25.285Z,980.7
2018-06-30T16:18:31.286Z,980.7
2018-06-30T16:19:34.725Z,980.6
2018-06-30T16:20:36.083Z,980.7
2018-06-30T16:21:37.414Z,980.7
2018-06-30T16:22:41.201Z,980.7
2018-06-30T16:23:42.749Z,980.7
2018-06-30T16:24:44.091Z,980.8
2018-06-30T16:25:46.683Z,980.7
2018-06-30T16:26:50.276Z,980.6
2018-06-30T16:27:51.663Z,980.7
2018-06-30T16:28:53.244Z,980.7
2018-06-30T16:29:57.360Z,980.7
2018-06-30T16:31:00.629Z,980.7
2018-06-30T16:32:04.144Z,980.7
2018-06-30T16:33:05.489Z,980.6
2018-06-30T16:34:09.381Z,980.6
2018-06-30T16:35:14.239Z,980.6
2018-06-30T16:36:22.298Z,980.7
2018-06-30T16:37:23.731Z,980.7
2018-06-30T16:38:25.386Z,980.7
2018-06-30T16:39:29.299Z,980.7
2018-06-30T16:40:30.630Z,980.7
2018-06-30T16:41:42.653Z,980.7
2018-06-30T16:42:44.497Z,980.7
2018-06-30T16:43:45.891Z,980.6
2018-06-30T16:44:47.517Z,980.6
2018-06-30T16:45:49.067Z,980.7
2018-06-30T16:46:55.495Z,980.7
2018-06-30T16:47:56.833Z,980.6
2018-06-30T16:48:58.221Z,980.7
2018-06-30T16:49:59.888Z,980.7
2018-06-30T16:51:01.590Z,980.7
2018-06-30T16:52:02.933Z,980.7
2018-06-30T16:53:04.846Z,980.7
2018-06-30T16:54:06.488Z,980.7
2018-06-30T16:55:10.967Z,980.7
2018-06-30T16:56:19.100Z,980.8
2018-06-30T16:57:21.671Z,980.7
2018-06-30T16:58:23.250Z,980.7
2018-06-30T16:59:24.625Z,980.7
2018-06-30T17:00:26.023Z,980.7
2018-06-30T17:01:50.750Z,980.7
2018-06-30T17:02:52.364Z,980.6
2018-06-30T17:03:54.173Z,980.7
2018-06-30T17:04:55.569Z,980.7
2018-06-30T17:05:56.924Z,980.7
2018-06-30T17:07:00.097Z,980.8
2018-06-30T17:08:13.164Z,980.8
2018-06-30T17:09:14.533Z,980.6
2018-06-30T17:11:36.657Z,980.8
2018-06-30T17:12:39.509Z,980.7
2018-06-30T17:13:43.356Z,980.8
2018-06-30T17:14:44.849Z,980.8
2018-06-30T17:15:48.330Z,980.8
2018-06-30T17:16:53.025Z,980.8
2018-06-30T17:17:54.346Z,980.7
2018-06-30T17:18:55.889Z,980.8
2018-06-30T17:19:57.410Z,980.8
2018-06-30T17:20:58.832Z,980.8
2018-06-30T17:22:00.432Z,980.8
2018-06-30T17:23:01.827Z,980.6
2018-06-30T17:24:09.380Z,980.8
2018-06-30T17:25:10.732Z,980.7
2018-06-30T17:26:15.048Z,980.6
2018-06-30T17:27:19.302Z,980.6
2018-06-30T17:28:20.713Z,980.7
2018-06-30T17:29:22.331Z,980.7
2018-06-30T17:30:23.717Z,980.7
2018-06-30T17:31:25.658Z,980.8
2018-06-30T17:32:29.484Z,980.8
2018-06-30T17:33:30.836Z,980.8
2018-06-30T17:34:34.991Z,980.8
2018-06-30T17:35:39.590Z,980.8
2018-06-30T17:36:48.203Z,980.8
2018-06-30T17:37:49.749Z,980.8
2018-06-30T17:38:51.346Z,980.8
2018-06-30T17:40:01.397Z,980.8
2018-06-30T17:41:02.945Z,980.8
2018-06-30T17:42:04.332Z,980.8
2018-06-30T17:43:05.884Z,980.8
2018-06-30T17:44:07.385Z,980.8
2018-06-30T17:45:08.952Z,980.8
2018-06-30T17:46:13.471Z,980.8
2018-06-30T17:47:17.362Z,980.8
2018-06-30T17:48:18.723Z,980.8
2018-06-30T17:49:20.257Z,980.7
2018-06-30T17:50:21.847Z,980.8
2018-06-30T17:51:27.356Z,980.8
2018-06-30T17:52:30.080Z,980.8
2018-06-30T17:53:31.544Z,980.8
2018-06-30T17:54:32.895Z,980.9
2018-06-30T17:55:34.328Z,980.8
2018-06-30T17:56:35.659Z,980.8
2018-06-30T17:57:37.856Z,980.7
2018-06-30T17:58:39.392Z,980.8
2018-06-30T17:59:40.809Z,980.6
2018-06-30T18:00:47.327Z,980.6
2018-06-30T18:01:48.817Z,980.7
2018-06-30T18:02:50.745Z,980.7
2018-06-30T18:03:52.277Z,980.8
2018-06-30T18:04:53.658Z,980.8
2018-06-30T18:05:55.134Z,980.6
2018-06-30T18:06:56.776Z,980.8
2018-06-30T18:08:01.304Z,980.6
2018-06-30T18:09:04.163Z,980.8
2018-06-30T18:10:05.626Z,980.7
2018-06-30T18:11:07.067Z,980.7
2018-06-30T18:12:08.489Z,980.8
2018-06-30T18:13:10.026Z,980.8
2018-06-30T18:14:11.594Z,980.8
2018-06-30T18:15:12.939Z,980.8
2018-06-30T18:16:14.296Z,980.7
2018-06-30T18:17:15.700Z,980.8
2018-06-30T18:18:17.127Z,980.7
2018-06-30T18:19:18.611Z,980.8
2018-06-30T18:20:20.028Z,980.8
2018-06-30T18:21:21.371Z,980.8
2018-06-30T18:22:23.253Z,980.8
2018-06-30T18:24:43.790Z,980.8
2018-06-30T18:26:03.758Z,980.5
2018-06-30T18:27:05.454Z,980.9
2018-06-30T18:28:10.872Z,980.9
2018-06-30T18:29:12.357Z,980.9
2018-06-30T18:30:15.573Z,980.9
2018-06-30T18:31:21.403Z,980.9
2018-06-30T18:32:37.162Z,981
2018-06-30T18:33:43.333Z,981
2018-06-30T18:34:46.718Z,980.9
2018-06-30T18:35:49.084Z,981
2018-06-30T18:36:51.659Z,980.9
2018-06-30T18:37:57.219Z,981
2018-06-30T18:38:58.581Z,980.9
2018-06-30T18:40:00.486Z,980.9
2018-06-30T18:41:01.867Z,981
2018-06-30T18:42:03.392Z,980.9
2018-06-30T18:43:04.752Z,981
2018-06-30T18:44:09.744Z,981
2018-06-30T18:45:11.124Z,981
2018-06-30T18:46:15.161Z,981
2018-06-30T18:47:17.732Z,980.9
2018-06-30T18:48:19.322Z,981
2018-06-30T18:49:23.711Z,981
2018-06-30T18:50:25.116Z,981
2018-06-30T18:51:29.666Z,981
2018-06-30T18:52:31.111Z,981
2018-06-30T18:53:32.674Z,981
2018-06-30T18:54:37.214Z,981
2018-06-30T18:55:41.020Z,981
2018-06-30T18:56:42.382Z,981
2018-06-30T18:57:43.673Z,981
2018-06-30T18:58:44.986Z,981
2018-06-30T18:59:49.665Z,981
2018-06-30T19:00:54.368Z,981.1
2018-06-30T19:01:59.262Z,981
2018-06-30T19:03:10.782Z,981
2018-06-30T19:04:12.131Z,981
2018-06-30T19:05:13.425Z,981
2018-06-30T19:06:14.839Z,981
2018-06-30T19:07:19.375Z,981.1
2018-06-30T19:08:22.132Z,981.1
2018-06-30T19:09:23.519Z,981.1
2018-06-30T19:10:25.194Z,981.1
2018-06-30T19:11:26.467Z,981.1
2018-06-30T19:12:27.812Z,981.2
2018-06-30T19:13:30.346Z,981.2
2018-06-30T19:14:32.177Z,981.2
2018-06-30T19:15:33.488Z,981.2
2018-06-30T19:16:34.795Z,981.2
2018-06-30T19:17:36.170Z,981.2
2018-06-30T19:18:37.649Z,981.2
2018-06-30T19:19:39.175Z,981.2
2018-06-30T19:20:40.840Z,981.2
2018-06-30T19:21:42.230Z,981.2
2018-06-30T19:22:44.077Z,981.3
2018-06-30T19:23:48.147Z,981.2
2018-06-30T19:24:54.740Z,981
2018-06-30T19:25:56.390Z,981.3
2018-06-30T19:27:00.936Z,981.3
2018-06-30T19:28:04.094Z,981.4
2018-06-30T19:29:05.580Z,981.3
2018-06-30T19:30:09.134Z,981.4
2018-06-30T19:31:12.904Z,981.4
2018-06-30T19:32:15.144Z,981.3
2018-06-30T19:33:17.645Z,981.4
2018-06-30T19:34:20.169Z,981.4
2018-06-30T19:35:22.637Z,981.4
2018-06-30T19:36:25.315Z,981.3
2018-06-30T19:37:29.233Z,981.5
2018-06-30T19:38:31.178Z,981.5
2018-06-30T19:39:35.159Z,981.4
2018-06-30T19:40:36.536Z,981.5
2018-06-30T19:41:39.831Z,981.5
2018-06-30T19:42:41.785Z,981.5
2018-06-30T19:43:43.360Z,981.5
2018-06-30T19:44:47.176Z,981.5
2018-06-30T19:45:48.699Z,981.5
2018-06-30T19:46:50.120Z,981.6
2018-06-30T19:47:51.848Z,981.6
2018-06-30T19:48:53.336Z,981.5
2018-06-30T19:49:57.236Z,981.7
2018-06-30T19:50:58.952Z,981.6
2018-06-30T19:52:03.528Z,981.6
2018-06-30T19:53:09.091Z,981.6
2018-06-30T19:54:11.020Z,981.6
2018-06-30T19:55:18.358Z,981.6
2018-06-30T19:56:22.948Z,981.7
2018-06-30T19:57:27.232Z,981.5
2018-06-30T19:58:28.669Z,981.5
2018-06-30T19:59:32.675Z,981.8
2018-06-30T20:00:34.336Z,981.8
2018-06-30T20:01:37.759Z,981.7
2018-06-30T20:02:39.309Z,981.8
2018-06-30T20:03:41.234Z,981.7
2018-06-30T20:04:46.235Z,981.7
2018-06-30T20:05:48.231Z,981.7
2018-06-30T20:06:49.635Z,981.7
2018-06-30T20:07:53.626Z,981.8
2018-06-30T20:08:55.175Z,981.8
2018-06-30T20:09:57.588Z,981.7
2018-06-30T20:10:59.268Z,981.9
2018-06-30T20:12:03.186Z,981.9
2018-06-30T20:13:04.456Z,981.8
2018-06-30T20:14:08.296Z,981.8
2018-06-30T20:15:11.323Z,981.7
2018-06-30T20:16:12.732Z,981.9
2018-06-30T20:17:14.261Z,981.9
2018-06-30T20:18:21.868Z,981.8
2018-06-30T20:19:23.525Z,981.8
2018-06-30T20:20:25.168Z,981.9
2018-06-30T20:21:26.676Z,981.9
2018-06-30T20:22:32.366Z,981.9
2018-06-30T20:23:34.000Z,981.9
2018-06-30T20:24:35.348Z,981.9
2018-06-30T20:25:39.797Z,982
2018-06-30T20:26:41.832Z,981.9
2018-06-30T20:27:45.939Z,982
2018-06-30T20:28:47.515Z,982
2018-06-30T20:29:54.618Z,982
2018-06-30T20:30:58.681Z,982
2018-06-30T20:32:02.416Z,982
2018-06-30T20:33:04.505Z,982.1
2018-06-30T20:34:06.445Z,982.1
2018-06-30T20:35:08.178Z,982.1
2018-06-30T20:36:10.237Z,982.1
2018-06-30T20:37:18.942Z,982.1
2018-06-30T20:38:22.550Z,982.1
2018-06-30T20:39:24.509Z,982.1
2018-06-30T20:40:26.821Z,982.1
2018-06-30T20:41:28.945Z,982.1
2018-06-30T20:42:31.814Z,982.1
2018-06-30T20:43:33.864Z,982.2
2018-06-30T20:44:36.213Z,982
2018-06-30T20:45:41.495Z,982.2
2018-06-30T20:46:48.029Z,982.2
2018-06-30T20:47:52.313Z,982.2
2018-06-30T20:48:56.825Z,982.2
2018-06-30T20:50:14.369Z,982.2
2018-06-30T20:51:19.463Z,982.1
2018-06-30T20:52:43.242Z,982.1
2018-06-30T20:53:45.380Z,982.3
2018-06-30T20:54:49.736Z,982.2
2018-06-30T20:55:51.989Z,982.3
2018-06-30T20:57:04.127Z,982.3
2018-06-30T20:58:05.725Z,982.3
2018-06-30T20:59:09.645Z,982.2
2018-06-30T21:00:14.201Z,982.3
2018-06-30T21:01:23.982Z,982.4
2018-06-30T21:02:25.839Z,982.3
2018-06-30T21:03:28.384Z,982.2
2018-06-30T21:04:30.355Z,982.3
2018-06-30T21:05:32.068Z,982.3
2018-06-30T21:06:33.435Z,982.4
2018-06-30T21:07:37.817Z,982.4
2018-06-30T21:08:39.487Z,982.4
2018-06-30T21:09:44.673Z,982.4
2018-06-30T21:10:46.610Z,982.4
2018-06-30T21:11:57.489Z,982.4
2018-06-30T21:13:00.568Z,982.4
2018-06-30T21:14:02.184Z,982.4
2018-06-30T21:15:06.481Z,982.4
2018-06-30T21:16:08.343Z,982.3
2018-06-30T21:17:09.812Z,982.4
2018-06-30T21:18:12.540Z,982.4
2018-06-30T21:19:14.662Z,982.4
2018-06-30T21:20:17.171Z,982.4
2018-06-30T21:21:18.553Z,982.4
2018-06-30T21:22:22.794Z,982.4
2018-06-30T21:23:27.415Z,982.4
2018-06-30T21:24:28.812Z,982.4
2018-06-30T21:25:30.759Z,982.5
2018-06-30T21:26:35.678Z,982.4
2018-06-30T21:27:40.181Z,982.5
2018-06-30T21:28:42.002Z,982.5
2018-06-30T21:29:43.396Z,982.4
2018-06-30T21:30:44.711Z,982.5
2018-06-30T21:31:52.096Z,982.5
2018-06-30T21:32:56.425Z,982.5
2018-06-30T21:33:57.809Z,982.4
2018-06-30T21:34:59.422Z,982.4
2018-06-30T21:36:01.095Z,982.5
2018-06-30T21:37:05.896Z,982.4
2018-06-30T21:43:31.578Z,982.4
2018-06-30T21:44:35.409Z,982.5
2018-06-30T21:45:37.546Z,982.5
2018-06-30T21:46:41.317Z,982.5
2018-06-30T21:48:53.234Z,982.5
2018-06-30T21:49:54.976Z,982.5
2018-06-30T21:50:56.622Z,982.5
2018-06-30T21:52:00.367Z,982.2
2018-06-30T21:53:02.540Z,982.5
2018-06-30T21:54:05.494Z,982.5
2018-06-30T21:55:15.743Z,982.6
2018-06-30T21:56:17.698Z,982.6
2018-06-30T21:57:21.255Z,982.6
2018-06-30T21:58:23.551Z,982.6
2018-06-30T21:59:27.330Z,982.6
2018-06-30T22:00:28.779Z,982.6
2018-06-30T22:01:30.227Z,982.5
2018-06-30T22:02:31.664Z,982.6
2018-06-30T22:03:42.871Z,982.5
2018-06-30T22:04:44.394Z,982.6
2018-06-30T22:05:45.835Z,982.6
2018-06-30T22:06:47.264Z,982.6
2018-06-30T22:07:49.022Z,982.6
2018-06-30T22:08:50.314Z,982.6
2018-06-30T22:09:51.728Z,982.6
2018-06-30T22:10:58.153Z,982.6
2018-06-30T22:11:59.648Z,982.6
2018-06-30T22:13:01.698Z,982.6
2018-06-30T22:14:03.243Z,982.5
2018-06-30T22:15:04.634Z,982.7
2018-06-30T22:16:09.264Z,982.7
2018-06-30T22:17:14.675Z,982.7
2018-06-30T22:18:20.657Z,982.7
2018-06-30T22:19:22.320Z,982.7
2018-06-30T22:20:25.115Z,982.7
2018-06-30T22:21:32.315Z,982.7
2018-06-30T22:22:42.631Z,982.7
2018-06-30T22:23:48.674Z,982.7
2018-06-30T22:25:10.404Z,982.7
2018-06-30T22:26:59.080Z,982.6
2018-06-30T22:28:05.090Z,982.6
2018-06-30T22:29:07.199Z,982.6
2018-06-30T22:30:14.094Z,982.6
2018-06-30T22:31:15.420Z,982.5
2018-06-30T22:32:16.873Z,982.6
2018-06-30T22:33:18.203Z,982.6
2018-06-30T22:34:19.527Z,982.6
2018-06-30T22:35:22.241Z,982.6
2018-06-30T22:36:24.087Z,982.6
2018-06-30T22:37:25.384Z,982.6
2018-06-30T22:38:29.468Z,982.6
2018-06-30T22:39:30.903Z,982.6
2018-06-30T22:40:35.483Z,982.6
2018-06-30T22:41:36.800Z,982.6
2018-06-30T22:42:41.155Z,982.7
2018-06-30T22:43:42.503Z,982.5
2018-06-30T22:44:44.088Z,982.6
2018-06-30T22:45:45.566Z,982.7
2018-06-30T22:46:46.938Z,982.6
2018-06-30T22:47:48.586Z,982.6
2018-06-30T22:48:49.953Z,982.6
2018-06-30T22:49:51.649Z,982.6
2018-06-30T22:50:57.277Z,982.5
2018-06-30T22:51:58.681Z,982.7
2018-06-30T22:53:02.563Z,982.7
2018-06-30T22:54:03.827Z,982.7
2018-06-30T22:55:08.829Z,982.7
2018-06-30T22:56:11.612Z,982.7
2018-06-30T22:57:13.228Z,982.7
2018-06-30T22:58:14.773Z,982.8
2018-06-30T22:59:20.346Z,982.7
2018-06-30T23:00:21.682Z,982.7
2018-06-30T23:01:22.928Z,982.8
2018-06-30T23:02:24.221Z,982.7
2018-06-30T23:03:25.732Z,982.7
2018-06-30T23:04:26.950Z,982.6
2018-06-30T23:05:29.367Z,982.7
2018-06-30T23:06:31.777Z,982.7
2018-06-30T23:07:33.073Z,982.6
2018-06-30T23:08:34.327Z,982.8
2018-06-30T23:09:35.576Z,982.8
2018-06-30T23:10:36.803Z,982.9
2018-06-30T23:11:38.305Z,982.7
2018-06-30T23:12:39.630Z,982.8
2018-06-30T23:13:41.029Z,982.7
2018-06-30T23:14:42.314Z,982.8
2018-06-30T23:15:43.599Z,982.8
2018-06-30T23:16:44.893Z,982.9
2018-06-30T23:17:46.954Z,982.8
2018-06-30T23:18:48.497Z,982.7
2018-06-30T23:19:52.176Z,982.8
2018-06-30T23:20:53.672Z,982.8
2018-06-30T23:21:54.955Z,982.7
2018-06-30T23:22:56.297Z,982.7
2018-06-30T23:23:58.664Z,982.9
2018-06-30T23:25:00.163Z,982.8
2018-06-30T23:26:01.538Z,982.8
2018-06-30T23:27:02.957Z,982.8
2018-06-30T23:28:16.258Z,982.7
2018-06-30T23:29:17.590Z,982.8
2018-06-30T23:30:18.882Z,982.9
2018-06-30T23:31:20.142Z,982.8
2018-06-30T23:32:24.411Z,982.8
2018-06-30T23:33:26.110Z,982.9
2018-06-30T23:34:29.408Z,982.9
2018-06-30T23:35:30.789Z,982.9
2018-06-30T23:36:36.401Z,982.8
2018-06-30T23:37:37.764Z,983
2018-06-30T23:38:39.373Z,982.8
2018-06-30T23:39:40.677Z,983
2018-06-30T23:40:42.182Z,982.8
2018-06-30T23:41:43.435Z,983
2018-06-30T23:42:45.163Z,983
2018-06-30T23:43:46.794Z,982.9
2018-06-30T23:44:51.321Z,983
2018-06-30T23:45:52.594Z,982.9
2018-06-30T23:46:56.619Z,983
2018-06-30T23:48:00.534Z,982.9
2018-06-30T23:49:01.889Z,982.9
2018-06-30T23:50:03.163Z,982.8
2018-06-30T23:51:07.587Z,983
2018-06-30T23:52:08.887Z,983.1
2018-06-30T23:53:12.463Z,983
2018-06-30T23:54:13.813Z,983
2018-06-30T23:55:15.331Z,983
2018-06-30T23:56:16.648Z,982.9
2018-06-30T23:57:18.104Z,983
2018-06-30T23:58:19.326Z,982.9
2018-06-30T23:59:20.671Z,983.1
